Decoded Metar for KHAF (HALF MOON BAY in CA, USA) (IATA:N/A) | Meteo·Mobile Aviation Weather
aviador You're here:

KHAF Decoded Metar

HALF MOON BAY in CA, USA
Report Time2018-09-23 12:35:00
UTC Time2018-09-23 12:57:24
Flight Rules lifr LIFR
Wind070° at 04 kt
W.Decomp.*RWY 12: 1.7 kt HW 3.6 kt LCW
W.Rank070° ranks 24
Current wind is below 070° avg. (4.8)
Visibility402 m
Phenomena:Fog
Clouds:Overcast 002 Hf
Ceiling200 ft
Temp10°C (ISA -5)
Dew Point10°C (100% RH)
AAT8.6°C
QNH1013 hPa
Density Alt-351 ft
Elevation66 ft
Report Wrong Elevation
Raw Report
KHAF 231235Z AUTO 07004KT 1/4SM FG OVC002 10/10 A2992 RMK AO2=

Extra information for KHAF:More info

Metar Taf Metar & Taf Last 4 Metars F.Rules Stats Wind Profile Meteogram Temp Stats Airport Information Weather charts Add Link Nearby VenuesMetar ALERT Operation Metar Decoded Social comments

AIRNAV info for KHAF